createdAt,value
2019-04-04T00:02:03.918Z,80.50
2019-04-04T00:04:34.209Z,80.50
2019-04-04T00:07:02.685Z,80.60
2019-04-04T00:09:33.217Z,80.70
2019-04-04T00:12:01.517Z,80.70
2019-04-04T00:14:30.073Z,80.80
2019-04-04T00:16:58.570Z,80.70
2019-04-04T00:19:27.895Z,80.80
2019-04-04T00:22:00.090Z,80.80
2019-04-04T00:24:28.658Z,80.90
2019-04-04T00:26:57.289Z,80.80
2019-04-04T00:29:25.824Z,80.90
2019-04-04T00:31:54.393Z,80.80
2019-04-04T00:34:22.948Z,80.90
2019-04-04T00:36:51.408Z,80.90
2019-04-04T00:39:19.882Z,80.90
2019-04-04T00:41:49.059Z,81.00
2019-04-04T00:44:17.612Z,80.90
2019-04-04T00:46:46.475Z,81.00
2019-04-04T00:49:14.958Z,81.10
2019-04-04T00:51:45.081Z,81.20
2019-04-04T00:54:14.132Z,81.30
2019-04-04T00:56:44.205Z,81.30
2019-04-04T00:59:12.720Z,81.40
2019-04-04T01:01:41.237Z,81.40
2019-04-04T01:04:09.774Z,81.50
2019-04-04T01:06:38.281Z,81.50
2019-04-04T01:09:11.523Z,81.60
2019-04-04T01:11:37.035Z,81.70
2019-04-04T01:14:05.541Z,81.80
2019-04-04T01:16:37.162Z,81.70
2019-04-04T01:19:09.637Z,81.90
2019-04-04T01:21:38.015Z,81.90
2019-04-04T01:24:06.475Z,82.00
2019-04-04T01:26:35.818Z,82.00
2019-04-04T01:29:05.950Z,82.10
2019-04-04T01:31:34.887Z,82.20
2019-04-04T01:34:04.403Z,82.20
2019-04-04T01:36:32.906Z,82.30
2019-04-04T01:39:01.472Z,82.30
2019-04-04T01:41:29.950Z,82.30
2019-04-04T01:44:04.948Z,82.30
2019-04-04T01:46:33.987Z,82.40
2019-04-04T01:49:02.425Z,82.50
2019-04-04T01:51:30.995Z,82.60
2019-04-04T01:54:01.046Z,82.80
2019-04-04T01:56:29.944Z,82.80
2019-04-04T01:59:00.706Z,82.80
2019-04-04T02:01:29.209Z,83.70
2019-04-04T02:03:57.848Z,82.90
2019-04-04T02:06:28.433Z,82.90
2019-04-04T02:08:56.580Z,83.00
2019-04-04T02:11:25.115Z,83.00
2019-04-04T02:13:55.923Z,83.20
2019-04-04T02:16:25.042Z,83.20
2019-04-04T02:18:57.275Z,83.30
2019-04-04T02:21:29.172Z,83.40
2019-04-04T02:23:57.856Z,83.60
2019-04-04T02:26:29.411Z,83.40
2019-04-04T02:28:59.550Z,83.50
2019-04-04T02:31:29.743Z,83.50
2019-04-04T02:33:59.130Z,83.50
2019-04-04T02:36:27.698Z,83.60
2019-04-04T02:39:05.682Z,83.60
2019-04-04T02:41:34.311Z,83.60
2019-04-04T02:44:03.044Z,83.60
2019-04-04T02:46:31.677Z,83.50
2019-04-04T02:49:01.106Z,83.50
2019-04-04T02:51:31.411Z,83.60
2019-04-04T02:54:00.611Z,83.60
2019-04-04T02:56:29.245Z,83.60
2019-04-04T02:58:57.997Z,83.60
2019-04-04T03:01:26.598Z,83.80
2019-04-04T03:03:56.370Z,83.80
2019-04-04T03:06:25.163Z,83.90
2019-04-04T03:08:53.930Z,83.90
2019-04-04T03:11:23.083Z,83.90
2019-04-04T03:13:52.399Z,84.00
2019-04-04T03:16:22.390Z,84.20
2019-04-04T03:18:51.439Z,84.40
2019-04-04T03:21:23.390Z,84.10
2019-04-04T03:23:50.144Z,84.10
2019-04-04T03:26:20.209Z,84.20
2019-04-04T03:28:48.816Z,84.20
2019-04-04T03:31:18.502Z,84.20
2019-04-04T03:33:47.890Z,84.20
2019-04-04T03:36:16.437Z,84.20
2019-04-04T03:38:47.193Z,84.20
2019-04-04T03:41:15.633Z,84.20
2019-04-04T03:43:48.142Z,84.30
2019-04-04T03:46:14.314Z,84.20
2019-04-04T03:48:42.915Z,84.30
2019-04-04T03:51:11.516Z,84.20
2019-04-04T03:53:41.744Z,84.30
2019-04-04T03:56:10.369Z,84.30
2019-04-04T03:58:38.835Z,84.30
2019-04-04T04:01:11.744Z,84.20
2019-04-04T04:03:37.575Z,84.20
2019-04-04T04:06:09.113Z,84.30
2019-04-04T04:08:36.260Z,84.30
2019-04-04T04:11:05.787Z,84.30
2019-04-04T04:13:34.702Z,84.30
2019-04-04T04:16:09.946Z,84.30
2019-04-04T04:18:38.547Z,84.40
2019-04-04T04:21:10.944Z,84.40
2019-04-04T04:23:44.210Z,84.40
2019-04-04T04:26:13.388Z,84.40
2019-04-04T04:28:41.877Z,84.40
2019-04-04T04:31:14.358Z,84.40
2019-04-04T04:33:40.674Z,84.40
2019-04-04T04:36:10.123Z,84.40
2019-04-04T04:38:39.170Z,84.40
2019-04-04T04:41:08.408Z,84.40
2019-04-04T04:43:36.985Z,84.50
2019-04-04T04:46:05.534Z,84.50
2019-04-04T04:48:36.947Z,84.40
2019-04-04T04:51:05.496Z,84.50
2019-04-04T04:53:34.023Z,85.40
2019-04-04T04:56:04.184Z,84.40
2019-04-04T04:58:32.889Z,84.50
2019-04-04T05:01:01.509Z,84.40
2019-04-04T05:03:30.023Z,84.30
2019-04-04T05:05:58.590Z,84.40
2019-04-04T05:08:28.824Z,84.30
2019-04-04T05:10:57.467Z,84.40
2019-04-04T05:13:28.693Z,84.50
2019-04-04T05:16:08.838Z,84.40
2019-04-04T05:18:47.510Z,84.50
2019-04-04T05:24:03.663Z,84.50
2019-04-04T05:26:38.582Z,84.50
2019-04-04T05:29:07.501Z,84.60
2019-04-04T05:31:36.491Z,84.50
2019-04-04T05:34:05.141Z,84.70
2019-04-04T05:36:36.029Z,84.50
2019-04-04T05:39:07.589Z,84.50
2019-04-04T05:41:37.447Z,84.40
2019-04-04T05:44:10.207Z,84.60
2019-04-04T05:46:39.338Z,84.60
2019-04-04T05:49:08.411Z,84.50
2019-04-04T05:51:38.525Z,84.40
2019-04-04T05:54:08.179Z,84.30
2019-04-04T05:56:37.128Z,84.40
2019-04-04T05:59:05.747Z,84.40
2019-04-04T06:01:35.296Z,84.40
2019-04-04T06:04:04.802Z,84.30
2019-04-04T06:06:34.262Z,84.30
2019-04-04T06:12:13.436Z,84.30
2019-04-04T06:14:41.677Z,84.30
2019-04-04T06:17:11.762Z,84.20
2019-04-04T06:19:40.307Z,84.10
2019-04-04T06:22:31.614Z,85.00
2019-04-04T06:25:03.046Z,84.10
2019-04-04T06:27:31.658Z,84.10
2019-04-04T06:30:01.736Z,83.90
2019-04-04T06:32:31.040Z,83.90
2019-04-04T06:35:00.311Z,83.70
2019-04-04T06:37:28.860Z,83.50
2019-04-04T06:39:58.974Z,83.30
2019-04-04T06:42:28.023Z,83.20
2019-04-04T06:44:56.608Z,83.70
2019-04-04T06:47:25.636Z,83.00
2019-04-04T06:49:54.982Z,82.90
2019-04-04T06:52:23.653Z,82.90
2019-04-04T06:54:52.185Z,82.70
2019-04-04T06:57:21.439Z,82.50
2019-04-04T06:59:51.229Z,82.50
2019-04-04T07:02:20.150Z,82.40
2019-04-04T07:04:48.618Z,82.10
2019-04-04T07:07:17.172Z,81.90
2019-04-04T07:09:45.720Z,81.60
2019-04-04T07:12:21.158Z,81.40
2019-04-04T07:14:47.029Z,81.20
2019-04-04T07:17:16.454Z,81.30
2019-04-04T07:19:46.266Z,81.20
2019-04-04T07:22:15.472Z,81.10
2019-04-04T07:24:43.978Z,81.00
2019-04-04T07:27:15.960Z,80.80
2019-04-04T07:29:44.359Z,80.50
2019-04-04T07:32:12.903Z,80.00
2019-04-04T07:34:44.930Z,79.60
2019-04-04T07:37:11.642Z,79.40
2019-04-04T07:39:43.617Z,79.30
2019-04-04T07:42:15.362Z,79.10
2019-04-04T07:44:42.268Z,79.00
2019-04-04T07:47:10.859Z,78.60
2019-04-04T07:49:41.000Z,78.30
2019-04-04T07:52:09.459Z,78.10
2019-04-04T07:54:38.520Z,77.70
2019-04-04T07:57:08.990Z,77.60
2019-04-04T07:59:39.426Z,77.60
2019-04-04T08:02:09.563Z,77.40
2019-04-04T08:04:38.121Z,77.00
2019-04-04T08:07:06.595Z,76.80
2019-04-04T08:09:36.354Z,76.40
2019-04-04T08:12:07.279Z,76.30
2019-04-04T08:14:42.761Z,76.10
2019-04-04T08:17:12.238Z,75.80
2019-04-04T08:19:40.944Z,75.30
2019-04-04T08:22:09.732Z,75.10
2019-04-04T08:24:38.384Z,75.20
2019-04-04T08:27:07.046Z,74.90
2019-04-04T08:29:35.484Z,74.70
2019-04-04T08:32:05.163Z,74.30
2019-04-04T08:34:36.243Z,74.10
2019-04-04T08:37:04.692Z,73.70
2019-04-04T08:39:33.158Z,73.70
2019-04-04T08:42:01.637Z,73.40
2019-04-04T08:44:31.326Z,73.40
2019-04-04T08:46:59.830Z,73.20
2019-04-04T08:49:32.886Z,73.00
2019-04-04T08:52:02.209Z,72.80
2019-04-04T08:54:32.308Z,72.70
2019-04-04T08:59:58.304Z,72.50
2019-04-04T09:02:51.522Z,72.30
2019-04-04T09:07:55.880Z,72.00
2019-04-04T09:10:43.639Z,72.00
2019-04-04T09:13:12.176Z,71.80
2019-04-04T09:15:40.627Z,71.60
2019-04-04T09:18:10.033Z,71.40
2019-04-04T09:20:45.624Z,71.20
2019-04-04T09:23:14.150Z,71.20
2019-04-04T09:25:43.270Z,70.40
2019-04-04T09:28:14.494Z,70.20
2019-04-04T09:30:54.192Z,70.10
2019-04-04T09:33:23.082Z,69.70
2019-04-04T09:35:53.516Z,69.30
2019-04-04T09:38:22.021Z,68.70
2019-04-04T09:40:50.583Z,68.00
2019-04-04T09:43:20.217Z,67.40
2019-04-04T09:45:48.710Z,67.40
2019-04-04T09:48:18.159Z,67.00
2019-04-04T09:50:46.694Z,66.60
2019-04-04T09:53:15.178Z,66.40
2019-04-04T09:55:47.213Z,66.40
2019-04-04T09:58:36.686Z,65.90
2019-04-04T10:01:07.062Z,65.40
2019-04-04T10:03:35.668Z,65.00
2019-04-04T10:06:04.528Z,64.70
2019-04-04T10:08:33.979Z,64.20
2019-04-04T10:11:02.483Z,64.10
2019-04-04T10:13:30.936Z,63.60
2019-04-04T10:15:59.479Z,63.30
2019-04-04T10:18:28.012Z,63.30
2019-04-04T10:20:56.783Z,63.00
2019-04-04T10:23:25.260Z,62.30
2019-04-04T10:25:57.354Z,62.10
2019-04-04T10:28:25.809Z,62.00
2019-04-04T10:30:54.281Z,61.70
2019-04-04T10:33:25.631Z,61.40
2019-04-04T10:35:56.505Z,61.50
2019-04-04T10:41:03.997Z,60.80
2019-04-04T10:43:32.477Z,60.50
2019-04-04T10:46:02.142Z,60.10
2019-04-04T10:48:32.812Z,60.10
2019-04-04T10:51:03.811Z,60.20
2019-04-04T10:53:41.051Z,60.40
2019-04-04T10:56:10.428Z,59.90
2019-04-04T10:58:40.849Z,59.40
2019-04-04T11:01:14.371Z,58.90
2019-04-04T11:03:45.514Z,58.40
2019-04-04T11:06:13.797Z,58.40
2019-04-04T11:08:43.218Z,57.80
2019-04-04T11:11:12.648Z,57.30
2019-04-04T11:13:43.397Z,57.30
2019-04-04T11:16:11.844Z,57.30
2019-04-04T11:18:41.530Z,57.20
2019-04-04T11:21:10.056Z,57.30
2019-04-04T11:23:39.783Z,57.00
2019-04-04T11:26:12.281Z,56.20
2019-04-04T11:28:40.882Z,55.80
2019-04-04T11:31:36.203Z,55.30
2019-04-04T11:34:11.363Z,55.20
2019-04-04T11:36:48.272Z,55.00
2019-04-04T11:39:16.743Z,54.80
2019-04-04T11:41:45.534Z,54.40
2019-04-04T11:44:24.985Z,54.40
2019-04-04T11:50:25.704Z,54.10
2019-04-04T11:59:19.997Z,52.70
2019-04-04T12:04:31.455Z,51.90
2019-04-04T12:07:07.775Z,51.20
2019-04-04T12:09:37.700Z,50.50
2019-04-04T12:12:09.509Z,50.00
2019-04-04T12:14:38.557Z,50.10
2019-04-04T12:17:10.169Z,49.60
2019-04-04T12:19:38.780Z,48.90
2019-04-04T12:22:07.295Z,48.70
2019-04-04T12:24:36.569Z,48.40
2019-04-04T12:27:12.541Z,48.20
2019-04-04T12:29:41.107Z,47.90
2019-04-04T12:32:10.864Z,47.80
2019-04-04T12:34:46.905Z,47.90
2019-04-04T12:37:40.491Z,47.70
2019-04-04T12:39:51.794Z,47.60
2019-04-04T12:42:20.365Z,46.90
2019-04-04T12:44:50.423Z,46.30
2019-04-04T12:50:10.291Z,45.70
2019-04-04T12:52:39.331Z,46.40
2019-04-04T12:55:08.580Z,46.40
2019-04-04T12:57:37.803Z,46.10
2019-04-04T13:00:10.144Z,45.90
2019-04-04T13:02:43.092Z,45.90
2019-04-04T13:05:09.557Z,46.10
2019-04-04T13:07:39.283Z,46.40
2019-04-04T13:10:11.615Z,46.20
2019-04-04T13:12:44.416Z,45.80
2019-04-04T13:19:34.555Z,45.50
2019-04-04T13:22:10.417Z,45.30
2019-04-04T13:24:38.992Z,45.60
2019-04-04T13:27:12.583Z,46.00
2019-04-04T13:29:42.279Z,45.90
2019-04-04T13:32:11.028Z,46.00
2019-04-04T13:35:04.847Z,45.80
2019-04-04T13:37:34.740Z,45.70
2019-04-04T13:40:06.073Z,45.40
2019-04-04T13:42:34.617Z,45.30
2019-04-04T13:45:05.976Z,44.70
2019-04-04T13:47:38.103Z,44.10
2019-04-04T13:50:12.417Z,43.90
2019-04-04T13:52:40.197Z,42.80
2019-04-04T13:55:10.222Z,41.90
2019-04-04T13:57:40.738Z,41.70
2019-04-04T14:00:10.420Z,41.00
2019-04-04T14:02:39.376Z,41.10
2019-04-04T14:05:43.822Z,40.90
2019-04-04T14:08:14.276Z,40.80
2019-04-04T14:10:57.292Z,41.50
2019-04-04T14:13:15.362Z,42.10
2019-04-04T14:15:43.979Z,42.90
2019-04-04T14:18:22.154Z,43.40
2019-04-04T14:21:03.393Z,44.10
2019-04-04T14:23:25.226Z,44.70
2019-04-04T14:25:53.772Z,45.40
2019-04-04T14:28:24.431Z,46.30
2019-04-04T14:30:55.171Z,47.10
2019-04-04T14:33:25.344Z,48.00
2019-04-04T14:35:54.065Z,48.50
2019-04-04T14:38:28.046Z,49.10
2019-04-04T14:40:55.753Z,49.60
2019-04-04T14:43:24.828Z,50.20
2019-04-04T14:45:54.239Z,50.00
2019-04-04T14:48:23.441Z,50.40
2019-04-04T14:50:51.913Z,50.70
2019-04-04T14:53:21.737Z,51.10
2019-04-04T14:55:52.906Z,51.10
2019-04-04T14:58:21.415Z,51.20
2019-04-04T15:00:49.899Z,51.40
2019-04-04T15:03:18.505Z,51.70
2019-04-04T15:05:49.288Z,51.90
2019-04-04T15:08:18.150Z,52.00
2019-04-04T15:10:47.751Z,52.20
2019-04-04T15:13:16.280Z,52.20
2019-04-04T15:16:10.328Z,52.30
2019-04-04T15:18:39.879Z,52.40
2019-04-04T15:21:09.344Z,52.50
2019-04-04T15:23:38.495Z,52.70
2019-04-04T15:26:09.853Z,52.70
2019-04-04T15:28:41.659Z,52.90
2019-04-04T15:31:10.747Z,53.10
2019-04-04T15:33:39.230Z,53.20
2019-04-04T15:36:15.397Z,53.40
2019-04-04T15:38:44.307Z,53.70
2019-04-04T15:41:14.765Z,53.90
2019-04-04T15:43:43.230Z,54.10
2019-04-04T15:46:11.896Z,54.30
2019-04-04T15:48:41.312Z,54.40
2019-04-04T15:51:09.895Z,54.60
2019-04-04T15:53:38.415Z,54.80
2019-04-04T15:56:08.365Z,54.90
2019-04-04T15:58:38.656Z,55.10
2019-04-04T16:01:07.604Z,55.10
2019-04-04T16:03:37.573Z,55.30
2019-04-04T16:06:07.298Z,55.50
2019-04-04T16:08:36.699Z,55.60
2019-04-04T16:11:06.873Z,55.70
2019-04-04T16:13:37.469Z,55.80
2019-04-04T16:16:09.393Z,56.00
2019-04-04T16:18:40.201Z,56.00
2019-04-04T16:21:09.921Z,56.20
2019-04-04T16:23:39.982Z,56.40
2019-04-04T16:26:08.467Z,56.30
2019-04-04T16:28:39.693Z,56.40
2019-04-04T16:31:08.227Z,56.60
2019-04-04T16:33:36.710Z,56.80
2019-04-04T16:36:05.611Z,57.00
2019-04-04T16:38:34.665Z,57.00
2019-04-04T16:41:04.042Z,57.00
2019-04-04T16:43:32.506Z,57.10
2019-04-04T16:46:04.202Z,56.70
2019-04-04T16:48:34.024Z,57.30
2019-04-04T16:51:03.690Z,57.30
2019-04-04T16:53:32.241Z,57.40
2019-04-04T16:56:00.862Z,57.50
2019-04-04T16:58:29.945Z,57.60
2019-04-04T17:00:58.431Z,57.70
2019-04-04T17:03:26.904Z,57.70
2019-04-04T17:05:56.873Z,57.80
2019-04-04T17:08:25.324Z,57.90
2019-04-04T17:11:00.088Z,57.80
2019-04-04T17:13:29.825Z,57.80
2019-04-04T17:15:58.280Z,57.90
2019-04-04T17:18:28.138Z,57.90
2019-04-04T17:20:56.751Z,57.90
2019-04-04T17:23:25.233Z,57.90
2019-04-04T17:25:55.509Z,57.80
2019-04-04T17:28:43.787Z,57.90
2019-04-04T17:31:12.503Z,58.10
2019-04-04T17:33:41.142Z,58.00
2019-04-04T17:36:09.699Z,58.00
2019-04-04T17:38:38.382Z,58.00
2019-04-04T17:41:08.107Z,57.70
2019-04-04T17:43:41.766Z,57.50
2019-04-04T17:46:10.300Z,57.30
2019-04-04T17:48:40.671Z,57.00
2019-04-04T17:51:10.191Z,56.80
2019-04-04T17:53:41.387Z,56.70
2019-04-04T17:56:10.323Z,56.70
2019-04-04T17:58:38.888Z,56.70
2019-04-04T18:01:09.771Z,56.60
2019-04-04T18:03:38.405Z,56.60
2019-04-04T18:06:08.962Z,56.50
2019-04-04T18:08:37.573Z,56.80
2019-04-04T18:11:06.256Z,56.50
2019-04-04T18:13:34.865Z,56.60
2019-04-04T18:16:03.476Z,56.60
2019-04-04T18:18:33.434Z,56.70
2019-04-04T18:21:02.582Z,56.80
2019-04-04T18:23:32.025Z,56.80
2019-04-04T18:26:00.652Z,56.90
2019-04-04T18:28:29.337Z,57.10
2019-04-04T18:30:59.348Z,57.30
2019-04-04T18:33:29.765Z,57.50
2019-04-04T18:35:58.951Z,57.70
2019-04-04T18:38:27.792Z,57.90
2019-04-04T18:40:59.362Z,58.00
2019-04-04T18:43:28.687Z,57.80
2019-04-04T18:45:59.295Z,57.80
2019-04-04T18:48:28.009Z,57.80
2019-04-04T18:50:56.602Z,57.80
2019-04-04T18:53:25.172Z,58.00
2019-04-04T18:55:55.535Z,57.60
2019-04-04T18:58:23.989Z,57.40
2019-04-04T19:00:53.135Z,57.30
2019-04-04T19:03:24.257Z,57.20
2019-04-04T19:05:56.087Z,57.90
2019-04-04T19:08:24.768Z,57.10
2019-04-04T19:10:53.498Z,57.10
2019-04-04T19:13:22.669Z,57.10
2019-04-04T19:15:53.215Z,57.10
2019-04-04T19:18:24.285Z,57.30
2019-04-04T19:20:57.313Z,57.40
2019-04-04T19:23:25.869Z,57.40
2019-04-04T19:25:54.367Z,57.60
2019-04-04T19:28:23.654Z,57.60
2019-04-04T19:30:52.262Z,57.70
2019-04-04T19:33:20.762Z,57.80
2019-04-04T19:35:51.060Z,58.00
2019-04-04T19:38:25.032Z,58.30
2019-04-04T19:40:54.531Z,58.50
2019-04-04T19:43:23.309Z,58.50
2019-04-04T19:45:51.893Z,58.70
2019-04-04T19:48:25.086Z,59.00
2019-04-04T19:50:53.621Z,59.20
2019-04-04T19:53:25.096Z,59.50
2019-04-04T19:55:53.585Z,60.10
2019-04-04T19:58:22.427Z,59.90
2019-04-04T20:00:51.401Z,60.10
2019-04-04T20:03:20.043Z,60.30
2019-04-04T20:05:48.644Z,60.60
2019-04-04T20:08:17.121Z,60.90
2019-04-04T20:10:45.634Z,61.10
2019-04-04T20:13:14.197Z,61.40
2019-04-04T20:15:43.341Z,61.60
2019-04-04T20:18:12.081Z,61.80
2019-04-04T20:20:40.621Z,62.00
2019-04-04T20:23:09.401Z,62.10
2019-04-04T20:25:38.028Z,62.30
2019-04-04T20:28:07.100Z,62.50
2019-04-04T20:30:38.010Z,62.70
2019-04-04T20:33:07.991Z,63.00
2019-04-04T20:35:36.548Z,63.10
2019-04-04T20:38:05.745Z,63.30
2019-04-04T20:40:34.341Z,63.40
2019-04-04T20:43:02.826Z,63.70
2019-04-04T20:45:31.310Z,63.80
2019-04-04T20:48:00.115Z,63.90
2019-04-04T20:50:28.587Z,64.10
2019-04-04T20:52:57.787Z,64.20
2019-04-04T20:55:26.297Z,64.30
2019-04-04T20:57:54.868Z,64.60
2019-04-04T21:00:23.353Z,64.70
2019-04-04T21:02:51.897Z,64.80
2019-04-04T21:05:22.004Z,64.80
2019-04-04T21:07:50.665Z,65.00
2019-04-04T21:10:19.595Z,65.10
2019-04-04T21:12:48.221Z,65.30
2019-04-04T21:15:19.135Z,65.30
2019-04-04T21:17:47.619Z,65.50
2019-04-04T21:20:16.082Z,65.60
2019-04-04T21:22:45.102Z,65.60
2019-04-04T21:25:13.672Z,65.80
2019-04-04T21:27:43.853Z,65.80
2019-04-04T21:30:14.798Z,65.90
2019-04-04T21:32:45.313Z,66.00
2019-04-04T21:35:13.902Z,66.10
2019-04-04T21:37:42.392Z,66.20
2019-04-04T21:40:11.390Z,66.30
2019-04-04T21:42:39.874Z,66.20
2019-04-04T21:45:10.225Z,66.40
2019-04-04T21:47:39.346Z,66.40
2019-04-04T21:50:08.035Z,66.50
2019-04-04T21:52:37.854Z,66.50
2019-04-04T21:55:06.695Z,66.70
2019-04-04T21:57:35.573Z,66.70
2019-04-04T22:00:06.792Z,66.90
2019-04-04T22:02:36.019Z,66.70
2019-04-04T22:05:08.041Z,66.70
2019-04-04T22:07:36.753Z,66.80
2019-04-04T22:10:07.605Z,66.90
2019-04-04T22:12:37.842Z,67.10
2019-04-04T22:15:25.685Z,68.00
2019-04-04T22:17:54.425Z,67.70
2019-04-04T22:20:22.945Z,67.40
2019-04-04T22:22:52.942Z,67.50
2019-04-04T22:25:21.481Z,67.60
2019-04-04T22:27:50.330Z,67.70
2019-04-04T22:30:19.755Z,67.80
2019-04-04T22:32:52.232Z,67.90
2019-04-04T22:35:23.047Z,67.90
2019-04-04T22:37:51.510Z,68.00
2019-04-04T22:40:21.507Z,68.10
2019-04-04T22:42:49.949Z,68.20
2019-04-04T22:45:18.500Z,68.40
2019-04-04T22:47:47.336Z,68.30
2019-04-04T22:50:15.941Z,68.50
2019-04-04T22:52:44.431Z,68.70
2019-04-04T22:55:13.219Z,68.80
2019-04-04T22:57:42.336Z,68.90
2019-04-04T23:00:11.710Z,69.00
2019-04-04T23:02:41.035Z,69.20
2019-04-04T23:05:11.264Z,69.40
2019-04-04T23:07:40.546Z,69.50
2019-04-04T23:10:11.545Z,69.60
2019-04-04T23:12:40.286Z,69.90
2019-04-04T23:15:10.231Z,70.00
2019-04-04T23:17:38.703Z,70.20
2019-04-04T23:20:11.975Z,70.30
2019-04-04T23:22:52.097Z,70.50
2019-04-04T23:25:11.838Z,70.60
2019-04-04T23:27:41.878Z,70.80
2019-04-04T23:30:11.305Z,70.80
2019-04-04T23:32:39.763Z,70.90
2019-04-04T23:35:08.403Z,71.10
2019-04-04T23:37:39.316Z,71.00
2019-04-04T23:40:08.616Z,71.10
2019-04-04T23:42:37.117Z,71.20
2019-04-04T23:45:07.775Z,71.20
2019-04-04T23:47:42.717Z,71.20
2019-04-04T23:50:08.693Z,71.10
2019-04-04T23:52:37.261Z,71.20
2019-04-04T23:55:09.307Z,71.20
2019-04-04T23:57:40.486Z,71.30
